sensor_id;sensor_type;location;lat;lon;timestamp;P1;durP1;ratioP1;P2;durP2;ratioP2
2119;SDS011;1066;52.540;13.420;2023-04-06T00:00:47;6.00;;;5.40;;
2119;SDS011;1066;52.540;13.420;2023-04-06T00:03:13;7.70;;;5.90;;
2119;SDS011;1066;52.540;13.420;2023-04-06T00:05:38;7.10;;;6.40;;
2119;SDS011;1066;52.540;13.420;2023-04-06T00:08:03;7.63;;;6.83;;
2119;SDS011;1066;52.540;13.420;2023-04-06T00:10:29;6.73;;;6.07;;
2119;SDS011;1066;52.540;13.420;2023-04-06T00:12:54;8.13;;;5.87;;
2119;SDS011;1066;52.540;13.420;2023-04-06T00:15:21;7.27;;;6.03;;
2119;SDS011;1066;52.540;13.420;2023-04-06T00:17:46;6.40;;;5.80;;
2119;SDS011;1066;52.540;13.420;2023-04-06T00:20:12;7.00;;;5.70;;
2119;SDS011;1066;52.540;13.420;2023-04-06T00:22:37;5.73;;;5.23;;
2119;SDS011;1066;52.540;13.420;2023-04-06T00:25:02;5.60;;;5.00;;
2119;SDS011;1066;52.540;13.420;2023-04-06T00:27:27;6.50;;;5.83;;
2119;SDS011;1066;52.540;13.420;2023-04-06T00:29:53;6.73;;;5.23;;
2119;SDS011;1066;52.540;13.420;2023-04-06T00:32:18;9.07;;;5.57;;
2119;SDS011;1066;52.540;13.420;2023-04-06T00:34:44;6.03;;;5.30;;
2119;SDS011;1066;52.540;13.420;2023-04-06T00:37:10;5.57;;;4.67;;
2119;SDS011;1066;52.540;13.420;2023-04-06T00:39:35;5.33;;;4.63;;
2119;SDS011;1066;52.540;13.420;2023-04-06T00:42:01;7.20;;;5.13;;
2119;SDS011;1066;52.540;13.420;2023-04-06T00:44:30;5.97;;;5.37;;
2119;SDS011;1066;52.540;13.420;2023-04-06T00:46:56;5.87;;;5.30;;
2119;SDS011;1066;52.540;13.420;2023-04-06T00:49:22;5.53;;;3.90;;
2119;SDS011;1066;52.540;13.420;2023-04-06T00:51:47;5.03;;;4.60;;
2119;SDS011;1066;52.540;13.420;2023-04-06T00:54:12;6.93;;;4.70;;
2119;SDS011;1066;52.540;13.420;2023-04-06T00:56:37;5.50;;;5.00;;
2119;SDS011;1066;52.540;13.420;2023-04-06T00:59:03;5.10;;;4.60;;
2119;SDS011;1066;52.540;13.420;2023-04-06T01:01:28;4.73;;;4.23;;
2119;SDS011;1066;52.540;13.420;2023-04-06T01:03:53;7.00;;;5.57;;
2119;SDS011;1066;52.540;13.420;2023-04-06T01:06:19;4.57;;;3.93;;
2119;SDS011;1066;52.540;13.420;2023-04-06T01:08:44;5.03;;;4.37;;
2119;SDS011;1066;52.540;13.420;2023-04-06T01:11:10;5.53;;;4.37;;
2119;SDS011;1066;52.540;13.420;2023-04-06T01:13:35;4.77;;;4.37;;
2119;SDS011;1066;52.540;13.420;2023-04-06T01:16:00;5.90;;;4.83;;
2119;SDS011;1066;52.540;13.420;2023-04-06T01:18:26;5.37;;;4.10;;
2119;SDS011;1066;52.540;13.420;2023-04-06T01:20:51;4.60;;;4.20;;
2119;SDS011;1066;52.540;13.420;2023-04-06T01:23:16;4.10;;;3.80;;
2119;SDS011;1066;52.540;13.420;2023-04-06T01:25:42;6.80;;;4.40;;
2119;SDS011;1066;52.540;13.420;2023-04-06T01:28:07;5.03;;;4.63;;
2119;SDS011;1066;52.540;13.420;2023-04-06T01:30:32;4.93;;;4.00;;
2119;SDS011;1066;52.540;13.420;2023-04-06T01:32:57;3.80;;;3.47;;
2119;SDS011;1066;52.540;13.420;2023-04-06T01:35:23;6.57;;;3.87;;
2119;SDS011;1066;52.540;13.420;2023-04-06T01:37:48;5.53;;;4.60;;
2119;SDS011;1066;52.540;13.420;2023-04-06T01:40:13;6.63;;;4.47;;
2119;SDS011;1066;52.540;13.420;2023-04-06T01:42:38;5.33;;;4.80;;
2119;SDS011;1066;52.540;13.420;2023-04-06T01:45:04;4.30;;;3.80;;
2119;SDS011;1066;52.540;13.420;2023-04-06T01:47:30;4.17;;;3.77;;
2119;SDS011;1066;52.540;13.420;2023-04-06T01:49:55;7.40;;;4.07;;
2119;SDS011;1066;52.540;13.420;2023-04-06T01:52:21;5.33;;;4.53;;
2119;SDS011;1066;52.540;13.420;2023-04-06T01:54:46;4.07;;;3.77;;
2119;SDS011;1066;52.540;13.420;2023-04-06T01:57:11;7.47;;;4.50;;
2119;SDS011;1066;52.540;13.420;2023-04-06T01:59:36;5.70;;;4.40;;
2119;SDS011;1066;52.540;13.420;2023-04-06T02:02:02;4.77;;;4.07;;
2119;SDS011;1066;52.540;13.420;2023-04-06T02:04:27;5.17;;;4.77;;
2119;SDS011;1066;52.540;13.420;2023-04-06T02:06:52;4.83;;;4.33;;
2119;SDS011;1066;52.540;13.420;2023-04-06T02:09:17;5.13;;;4.63;;
2119;SDS011;1066;52.540;13.420;2023-04-06T02:11:43;5.93;;;5.13;;
2119;SDS011;1066;52.540;13.420;2023-04-06T02:14:08;8.30;;;6.30;;
2119;SDS011;1066;52.540;13.420;2023-04-06T02:16:33;5.33;;;4.37;;
2119;SDS011;1066;52.540;13.420;2023-04-06T02:18:58;6.77;;;5.27;;
2119;SDS011;1066;52.540;13.420;2023-04-06T02:21:24;5.77;;;5.27;;
2119;SDS011;1066;52.540;13.420;2023-04-06T02:23:49;5.23;;;4.63;;
2119;SDS011;1066;52.540;13.420;2023-04-06T02:26:14;7.13;;;4.60;;
2119;SDS011;1066;52.540;13.420;2023-04-06T02:28:40;7.87;;;4.73;;
2119;SDS011;1066;52.540;13.420;2023-04-06T02:31:05;6.97;;;5.70;;
2119;SDS011;1066;52.540;13.420;2023-04-06T02:33:31;5.67;;;4.80;;
2119;SDS011;1066;52.540;13.420;2023-04-06T02:35:56;5.07;;;4.23;;
2119;SDS011;1066;52.540;13.420;2023-04-06T02:38:22;7.03;;;5.33;;
2119;SDS011;1066;52.540;13.420;2023-04-06T02:40:47;5.80;;;5.17;;
2119;SDS011;1066;52.540;13.420;2023-04-06T02:43:12;6.43;;;5.47;;
2119;SDS011;1066;52.540;13.420;2023-04-06T02:45:38;4.67;;;4.27;;
2119;SDS011;1066;52.540;13.420;2023-04-06T02:48:03;5.90;;;5.30;;
2119;SDS011;1066;52.540;13.420;2023-04-06T02:50:28;8.00;;;5.33;;
2119;SDS011;1066;52.540;13.420;2023-04-06T02:52:53;6.10;;;5.23;;
2119;SDS011;1066;52.540;13.420;2023-04-06T02:55:19;6.13;;;5.07;;
2119;SDS011;1066;52.540;13.420;2023-04-06T02:57:44;8.17;;;5.00;;
2119;SDS011;1066;52.540;13.420;2023-04-06T03:00:10;6.10;;;5.30;;
2119;SDS011;1066;52.540;13.420;2023-04-06T03:02:36;5.93;;;5.00;;
2119;SDS011;1066;52.540;13.420;2023-04-06T03:05:01;6.33;;;5.37;;
2119;SDS011;1066;52.540;13.420;2023-04-06T03:07:28;6.00;;;4.80;;
2119;SDS011;1066;52.540;13.420;2023-04-06T03:09:53;5.57;;;4.37;;
2119;SDS011;1066;52.540;13.420;2023-04-06T03:12:18;9.67;;;5.57;;
2119;SDS011;1066;52.540;13.420;2023-04-06T03:14:43;6.20;;;4.77;;
2119;SDS011;1066;52.540;13.420;2023-04-06T03:17:09;7.00;;;6.07;;
2119;SDS011;1066;52.540;13.420;2023-04-06T03:19:34;9.00;;;6.20;;
2119;SDS011;1066;52.540;13.420;2023-04-06T03:21:59;9.87;;;6.93;;
2119;SDS011;1066;52.540;13.420;2023-04-06T03:24:25;5.97;;;5.37;;
2119;SDS011;1066;52.540;13.420;2023-04-06T03:26:50;7.47;;;5.90;;
2119;SDS011;1066;52.540;13.420;2023-04-06T03:29:15;8.97;;;7.17;;
2119;SDS011;1066;52.540;13.420;2023-04-06T03:31:41;8.80;;;6.53;;
2119;SDS011;1066;52.540;13.420;2023-04-06T03:34:06;12.47;;;7.10;;
2119;SDS011;1066;52.540;13.420;2023-04-06T03:36:31;7.30;;;6.60;;
2119;SDS011;1066;52.540;13.420;2023-04-06T03:38:56;15.73;;;7.17;;
2119;SDS011;1066;52.540;13.420;2023-04-06T03:41:22;7.67;;;6.97;;
2119;SDS011;1066;52.540;13.420;2023-04-06T03:43:47;7.77;;;6.60;;
2119;SDS011;1066;52.540;13.420;2023-04-06T03:46:12;9.20;;;7.10;;
2119;SDS011;1066;52.540;13.420;2023-04-06T03:48:37;7.93;;;7.30;;
2119;SDS011;1066;52.540;13.420;2023-04-06T03:51:03;7.13;;;6.53;;
2119;SDS011;1066;52.540;13.420;2023-04-06T03:53:28;9.60;;;7.60;;
2119;SDS011;1066;52.540;13.420;2023-04-06T03:55:53;7.57;;;6.97;;
2119;SDS011;1066;52.540;13.420;2023-04-06T03:58:19;8.00;;;7.10;;
2119;SDS011;1066;52.540;13.420;2023-04-06T04:00:44;8.20;;;7.10;;
2119;SDS011;1066;52.540;13.420;2023-04-06T04:03:09;8.40;;;6.87;;
2119;SDS011;1066;52.540;13.420;2023-04-06T04:05:35;7.40;;;6.70;;
2119;SDS011;1066;52.540;13.420;2023-04-06T04:08:00;7.60;;;6.90;;
2119;SDS011;1066;52.540;13.420;2023-04-06T04:10:25;7.70;;;7.00;;
2119;SDS011;1066;52.540;13.420;2023-04-06T04:12:50;7.10;;;6.37;;
2119;SDS011;1066;52.540;13.420;2023-04-06T04:15:16;6.77;;;6.17;;
2119;SDS011;1066;52.540;13.420;2023-04-06T04:17:41;10.00;;;7.40;;
2119;SDS011;1066;52.540;13.420;2023-04-06T04:20:06;9.43;;;7.53;;
2119;SDS011;1066;52.540;13.420;2023-04-06T04:22:32;8.03;;;6.90;;
2119;SDS011;1066;52.540;13.420;2023-04-06T04:24:57;6.73;;;6.23;;
2119;SDS011;1066;52.540;13.420;2023-04-06T04:27:23;7.00;;;6.30;;
2119;SDS011;1066;52.540;13.420;2023-04-06T04:29:48;9.40;;;8.23;;
2119;SDS011;1066;52.540;13.420;2023-04-06T04:32:13;8.60;;;6.80;;
2119;SDS011;1066;52.540;13.420;2023-04-06T04:34:38;8.03;;;7.20;;
2119;SDS011;1066;52.540;13.420;2023-04-06T04:37:06;8.23;;;7.43;;
2119;SDS011;1066;52.540;13.420;2023-04-06T04:39:32;8.47;;;7.67;;
2119;SDS011;1066;52.540;13.420;2023-04-06T04:41:57;8.60;;;7.03;;
2119;SDS011;1066;52.540;13.420;2023-04-06T04:44:22;9.80;;;7.27;;
2119;SDS011;1066;52.540;13.420;2023-04-06T04:46:47;9.20;;;7.90;;
2119;SDS011;1066;52.540;13.420;2023-04-06T04:49:12;8.17;;;7.30;;
2119;SDS011;1066;52.540;13.420;2023-04-06T04:51:38;8.77;;;7.97;;
2119;SDS011;1066;52.540;13.420;2023-04-06T04:54:03;8.73;;;7.83;;
2119;SDS011;1066;52.540;13.420;2023-04-06T04:56:28;7.73;;;7.07;;
2119;SDS011;1066;52.540;13.420;2023-04-06T04:58:54;9.60;;;7.93;;
2119;SDS011;1066;52.540;13.420;2023-04-06T05:01:19;10.73;;;7.17;;
2119;SDS011;1066;52.540;13.420;2023-04-06T05:03:45;9.50;;;8.03;;
2119;SDS011;1066;52.540;13.420;2023-04-06T05:06:10;8.70;;;7.50;;
2119;SDS011;1066;52.540;13.420;2023-04-06T05:08:36;8.73;;;7.93;;
2119;SDS011;1066;52.540;13.420;2023-04-06T05:11:01;8.30;;;7.10;;
2119;SDS011;1066;52.540;13.420;2023-04-06T05:13:26;7.80;;;7.10;;
2119;SDS011;1066;52.540;13.420;2023-04-06T05:15:52;10.50;;;6.80;;
2119;SDS011;1066;52.540;13.420;2023-04-06T05:18:17;9.57;;;7.70;;
2119;SDS011;1066;52.540;13.420;2023-04-06T05:20:42;10.30;;;7.20;;
2119;SDS011;1066;52.540;13.420;2023-04-06T05:23:08;10.30;;;7.23;;
2119;SDS011;1066;52.540;13.420;2023-04-06T05:25:33;12.00;;;7.60;;
2119;SDS011;1066;52.540;13.420;2023-04-06T05:27:58;11.93;;;7.00;;
2119;SDS011;1066;52.540;13.420;2023-04-06T05:30:23;10.17;;;8.07;;
2119;SDS011;1066;52.540;13.420;2023-04-06T05:32:49;8.40;;;7.60;;
2119;SDS011;1066;52.540;13.420;2023-04-06T05:35:15;8.03;;;6.90;;
2119;SDS011;1066;52.540;13.420;2023-04-06T05:37:41;10.83;;;7.77;;
2119;SDS011;1066;52.540;13.420;2023-04-06T05:40:06;8.73;;;7.57;;
2119;SDS011;1066;52.540;13.420;2023-04-06T05:42:36;8.17;;;7.37;;
2119;SDS011;1066;52.540;13.420;2023-04-06T05:45:03;7.50;;;6.57;;
2119;SDS011;1066;52.540;13.420;2023-04-06T05:47:28;9.83;;;7.10;;
2119;SDS011;1066;52.540;13.420;2023-04-06T05:49:53;8.13;;;6.87;;
2119;SDS011;1066;52.540;13.420;2023-04-06T05:52:18;9.40;;;7.60;;
2119;SDS011;1066;52.540;13.420;2023-04-06T05:54:44;7.80;;;7.00;;
2119;SDS011;1066;52.540;13.420;2023-04-06T05:57:09;8.63;;;7.83;;
2119;SDS011;1066;52.540;13.420;2023-04-06T05:59:34;8.10;;;7.07;;
2119;SDS011;1066;52.540;13.420;2023-04-06T06:02:00;8.70;;;7.23;;
2119;SDS011;1066;52.540;13.420;2023-04-06T06:04:27;7.03;;;6.43;;
2119;SDS011;1066;52.540;13.420;2023-04-06T06:06:52;11.90;;;7.60;;
2119;SDS011;1066;52.540;13.420;2023-04-06T06:09:17;7.00;;;6.40;;
2119;SDS011;1066;52.540;13.420;2023-04-06T06:11:43;8.77;;;7.23;;
2119;SDS011;1066;52.540;13.420;2023-04-06T06:14:08;8.77;;;7.87;;
2119;SDS011;1066;52.540;13.420;2023-04-06T06:16:33;10.80;;;6.80;;
2119;SDS011;1066;52.540;13.420;2023-04-06T06:18:58;7.60;;;6.80;;
2119;SDS011;1066;52.540;13.420;2023-04-06T06:21:24;8.93;;;7.90;;
2119;SDS011;1066;52.540;13.420;2023-04-06T06:23:49;7.90;;;7.10;;
2119;SDS011;1066;52.540;13.420;2023-04-06T06:26:15;8.70;;;7.60;;
2119;SDS011;1066;52.540;13.420;2023-04-06T06:28:40;9.93;;;7.07;;
2119;SDS011;1066;52.540;13.420;2023-04-06T06:31:06;10.93;;;7.17;;
2119;SDS011;1066;52.540;13.420;2023-04-06T06:33:31;7.93;;;7.10;;
2119;SDS011;1066;52.540;13.420;2023-04-06T06:35:56;7.97;;;6.60;;
2119;SDS011;1066;52.540;13.420;2023-04-06T06:38:21;7.97;;;6.80;;
2119;SDS011;1066;52.540;13.420;2023-04-06T06:40:46;8.33;;;7.47;;
2119;SDS011;1066;52.540;13.420;2023-04-06T06:43:12;13.30;;;8.67;;
2119;SDS011;1066;52.540;13.420;2023-04-06T06:45:37;12.93;;;8.17;;
2119;SDS011;1066;52.540;13.420;2023-04-06T06:48:02;8.00;;;6.73;;
2119;SDS011;1066;52.540;13.420;2023-04-06T06:50:27;6.20;;;5.63;;
2119;SDS011;1066;52.540;13.420;2023-04-06T06:52:53;8.70;;;6.60;;
2119;SDS011;1066;52.540;13.420;2023-04-06T06:55:18;8.37;;;6.47;;
2119;SDS011;1066;52.540;13.420;2023-04-06T06:57:44;8.40;;;5.80;;
2119;SDS011;1066;52.540;13.420;2023-04-06T07:00:11;9.27;;;7.57;;
2119;SDS011;1066;52.540;13.420;2023-04-06T07:02:38;8.67;;;7.13;;
2119;SDS011;1066;52.540;13.420;2023-04-06T07:05:03;7.33;;;6.40;;
2119;SDS011;1066;52.540;13.420;2023-04-06T07:07:29;9.00;;;6.77;;
2119;SDS011;1066;52.540;13.420;2023-04-06T07:09:54;10.30;;;6.30;;
2119;SDS011;1066;52.540;13.420;2023-04-06T07:12:19;9.30;;;7.10;;
2119;SDS011;1066;52.540;13.420;2023-04-06T07:14:45;9.67;;;5.80;;
2119;SDS011;1066;52.540;13.420;2023-04-06T07:17:10;13.63;;;6.27;;
2119;SDS011;1066;52.540;13.420;2023-04-06T07:19:36;8.00;;;6.80;;
2119;SDS011;1066;52.540;13.420;2023-04-06T07:22:01;6.63;;;5.93;;
2119;SDS011;1066;52.540;13.420;2023-04-06T07:24:28;8.10;;;6.27;;
2119;SDS011;1066;52.540;13.420;2023-04-06T07:26:53;8.77;;;6.70;;
2119;SDS011;1066;52.540;13.420;2023-04-06T07:29:18;8.30;;;7.13;;
2119;SDS011;1066;52.540;13.420;2023-04-06T07:31:44;9.47;;;6.70;;
2119;SDS011;1066;52.540;13.420;2023-04-06T07:34:10;9.33;;;7.23;;
2119;SDS011;1066;52.540;13.420;2023-04-06T07:36:35;6.40;;;5.80;;
2119;SDS011;1066;52.540;13.420;2023-04-06T07:39:00;11.60;;;6.43;;
2119;SDS011;1066;52.540;13.420;2023-04-06T07:41:25;6.83;;;6.10;;
2119;SDS011;1066;52.540;13.420;2023-04-06T07:43:51;8.63;;;5.67;;
2119;SDS011;1066;52.540;13.420;2023-04-06T07:46:16;8.33;;;5.93;;
2119;SDS011;1066;52.540;13.420;2023-04-06T07:48:41;7.93;;;5.80;;
2119;SDS011;1066;52.540;13.420;2023-04-06T07:51:06;7.00;;;5.93;;
2119;SDS011;1066;52.540;13.420;2023-04-06T07:53:32;7.57;;;5.50;;
2119;SDS011;1066;52.540;13.420;2023-04-06T07:56:00;6.50;;;5.80;;
2119;SDS011;1066;52.540;13.420;2023-04-06T07:58:25;6.17;;;5.57;;
2119;SDS011;1066;52.540;13.420;2023-04-06T08:00:51;6.77;;;5.00;;
2119;SDS011;1066;52.540;13.420;2023-04-06T08:03:16;5.53;;;5.00;;
2119;SDS011;1066;52.540;13.420;2023-04-06T08:05:42;8.07;;;5.60;;
2119;SDS011;1066;52.540;13.420;2023-04-06T08:08:07;7.20;;;5.10;;
2119;SDS011;1066;52.540;13.420;2023-04-06T08:10:32;7.83;;;4.90;;
2119;SDS011;1066;52.540;13.420;2023-04-06T08:12:59;5.07;;;4.43;;
2119;SDS011;1066;52.540;13.420;2023-04-06T08:15:24;7.87;;;4.63;;
2119;SDS011;1066;52.540;13.420;2023-04-06T08:17:50;6.57;;;5.07;;
2119;SDS011;1066;52.540;13.420;2023-04-06T08:20:15;5.33;;;4.50;;
2119;SDS011;1066;52.540;13.420;2023-04-06T08:22:40;6.10;;;5.23;;
2119;SDS011;1066;52.540;13.420;2023-04-06T08:25:06;6.07;;;5.07;;
2119;SDS011;1066;52.540;13.420;2023-04-06T08:27:31;7.17;;;5.43;;
2119;SDS011;1066;52.540;13.420;2023-04-06T08:29:56;5.90;;;4.83;;
2119;SDS011;1066;52.540;13.420;2023-04-06T08:32:21;6.00;;;4.70;;
2119;SDS011;1066;52.540;13.420;2023-04-06T08:34:47;9.83;;;4.97;;
2119;SDS011;1066;52.540;13.420;2023-04-06T08:37:12;5.50;;;4.93;;
2119;SDS011;1066;52.540;13.420;2023-04-06T08:39:38;16.23;;;11.00;;
2119;SDS011;1066;52.540;13.420;2023-04-06T08:42:03;10.30;;;7.97;;
2119;SDS011;1066;52.540;13.420;2023-04-06T08:44:29;12.57;;;9.77;;
2119;SDS011;1066;52.540;13.420;2023-04-06T08:46:55;6.50;;;4.63;;
2119;SDS011;1066;52.540;13.420;2023-04-06T08:49:20;7.23;;;5.60;;
2119;SDS011;1066;52.540;13.420;2023-04-06T08:51:46;5.60;;;4.40;;
2119;SDS011;1066;52.540;13.420;2023-04-06T08:54:12;9.53;;;5.63;;
2119;SDS011;1066;52.540;13.420;2023-04-06T08:56:38;4.80;;;3.67;;
2119;SDS011;1066;52.540;13.420;2023-04-06T08:59:03;4.13;;;3.70;;
2119;SDS011;1066;52.540;13.420;2023-04-06T09:01:29;4.10;;;3.63;;
2119;SDS011;1066;52.540;13.420;2023-04-06T09:03:57;10.10;;;6.47;;
2119;SDS011;1066;52.540;13.420;2023-04-06T09:06:22;5.73;;;3.80;;
2119;SDS011;1066;52.540;13.420;2023-04-06T09:08:47;6.80;;;3.40;;
2119;SDS011;1066;52.540;13.420;2023-04-06T09:11:13;5.03;;;3.57;;
2119;SDS011;1066;52.540;13.420;2023-04-06T09:13:48;6.10;;;3.70;;
2119;SDS011;1066;52.540;13.420;2023-04-06T09:16:14;3.80;;;3.13;;
2119;SDS011;1066;52.540;13.420;2023-04-06T09:18:40;6.60;;;4.10;;
2119;SDS011;1066;52.540;13.420;2023-04-06T09:21:06;3.00;;;2.80;;
2119;SDS011;1066;52.540;13.420;2023-04-06T09:23:31;4.00;;;3.53;;
2119;SDS011;1066;52.540;13.420;2023-04-06T09:26:07;2.97;;;2.47;;
2119;SDS011;1066;52.540;13.420;2023-04-06T09:31:10;3.90;;;3.10;;
2119;SDS011;1066;52.540;13.420;2023-04-06T09:33:44;4.83;;;2.63;;
2119;SDS011;1066;52.540;13.420;2023-04-06T09:36:09;5.30;;;2.77;;
2119;SDS011;1066;52.540;13.420;2023-04-06T09:38:38;3.47;;;2.37;;
2119;SDS011;1066;52.540;13.420;2023-04-06T09:41:03;3.80;;;2.40;;
2119;SDS011;1066;52.540;13.420;2023-04-06T09:43:29;4.83;;;2.50;;
2119;SDS011;1066;52.540;13.420;2023-04-06T09:45:55;4.50;;;2.60;;
2119;SDS011;1066;52.540;13.420;2023-04-06T09:48:20;3.63;;;2.47;;
2119;SDS011;1066;52.540;13.420;2023-04-06T09:50:49;4.77;;;2.83;;
2119;SDS011;1066;52.540;13.420;2023-04-06T09:53:15;2.70;;;2.47;;
2119;SDS011;1066;52.540;13.420;2023-04-06T09:55:42;3.87;;;2.50;;
2119;SDS011;1066;52.540;13.420;2023-04-06T09:58:09;3.13;;;2.47;;
2119;SDS011;1066;52.540;13.420;2023-04-06T10:00:43;5.17;;;3.60;;
2119;SDS011;1066;52.540;13.420;2023-04-06T10:05:40;4.27;;;3.77;;
2119;SDS011;1066;52.540;13.420;2023-04-06T10:08:10;2.00;;;1.70;;
2119;SDS011;1066;52.540;13.420;2023-04-06T10:10:36;2.30;;;2.10;;
2119;SDS011;1066;52.540;13.420;2023-04-06T10:13:01;2.70;;;2.13;;
2119;SDS011;1066;52.540;13.420;2023-04-06T10:15:28;3.73;;;2.97;;
2119;SDS011;1066;52.540;13.420;2023-04-06T10:17:53;2.93;;;2.30;;
2119;SDS011;1066;52.540;13.420;2023-04-06T10:20:21;4.23;;;2.77;;
2119;SDS011;1066;52.540;13.420;2023-04-06T10:25:33;4.33;;;2.93;;
2119;SDS011;1066;52.540;13.420;2023-04-06T10:27:58;4.47;;;2.33;;
2119;SDS011;1066;52.540;13.420;2023-04-06T10:30:24;3.20;;;2.60;;
2119;SDS011;1066;52.540;13.420;2023-04-06T10:32:49;3.50;;;2.10;;
2119;SDS011;1066;52.540;13.420;2023-04-06T10:35:15;2.27;;;2.07;;
2119;SDS011;1066;52.540;13.420;2023-04-06T10:38:00;3.17;;;2.87;;
2119;SDS011;1066;52.540;13.420;2023-04-06T10:40:26;4.50;;;2.73;;
2119;SDS011;1066;52.540;13.420;2023-04-06T10:42:52;4.57;;;3.73;;
2119;SDS011;1066;52.540;13.420;2023-04-06T10:45:22;10.57;;;9.50;;
2119;SDS011;1066;52.540;13.420;2023-04-06T10:47:47;7.33;;;4.80;;
2119;SDS011;1066;52.540;13.420;2023-04-06T10:50:16;5.13;;;3.63;;
2119;SDS011;1066;52.540;13.420;2023-04-06T10:52:43;6.50;;;3.47;;
2119;SDS011;1066;52.540;13.420;2023-04-06T10:55:08;5.13;;;3.33;;
2119;SDS011;1066;52.540;13.420;2023-04-06T10:57:37;2.90;;;2.23;;
2119;SDS011;1066;52.540;13.420;2023-04-06T11:00:05;7.10;;;5.60;;
2119;SDS011;1066;52.540;13.420;2023-04-06T11:02:30;4.47;;;3.10;;
2119;SDS011;1066;52.540;13.420;2023-04-06T11:04:57;3.13;;;2.50;;
2119;SDS011;1066;52.540;13.420;2023-04-06T11:07:23;2.97;;;2.47;;
2119;SDS011;1066;52.540;13.420;2023-04-06T11:09:49;3.13;;;2.13;;
2119;SDS011;1066;52.540;13.420;2023-04-06T11:12:24;2.30;;;2.10;;
2119;SDS011;1066;52.540;13.420;2023-04-06T11:14:57;6.13;;;2.53;;
2119;SDS011;1066;52.540;13.420;2023-04-06T11:17:29;8.37;;;4.07;;
2119;SDS011;1066;52.540;13.420;2023-04-06T11:19:55;5.83;;;3.93;;
2119;SDS011;1066;52.540;13.420;2023-04-06T11:22:20;4.37;;;3.00;;
2119;SDS011;1066;52.540;13.420;2023-04-06T11:24:46;3.57;;;2.80;;
2119;SDS011;1066;52.540;13.420;2023-04-06T11:27:11;3.20;;;2.90;;
2119;SDS011;1066;52.540;13.420;2023-04-06T11:29:36;7.43;;;3.73;;
2119;SDS011;1066;52.540;13.420;2023-04-06T11:32:06;5.70;;;3.10;;
2119;SDS011;1066;52.540;13.420;2023-04-06T11:34:36;5.63;;;3.20;;
2119;SDS011;1066;52.540;13.420;2023-04-06T11:37:02;5.00;;;3.00;;
2119;SDS011;1066;52.540;13.420;2023-04-06T11:39:30;4.53;;;3.10;;
2119;SDS011;1066;52.540;13.420;2023-04-06T11:41:59;3.50;;;2.97;;
2119;SDS011;1066;52.540;13.420;2023-04-06T11:44:38;3.17;;;2.67;;
2119;SDS011;1066;52.540;13.420;2023-04-06T11:47:08;2.70;;;2.50;;
2119;SDS011;1066;52.540;13.420;2023-04-06T11:49:33;3.07;;;2.53;;
2119;SDS011;1066;52.540;13.420;2023-04-06T11:52:02;4.73;;;2.53;;
2119;SDS011;1066;52.540;13.420;2023-04-06T11:54:31;2.60;;;2.40;;
2119;SDS011;1066;52.540;13.420;2023-04-06T11:56:56;3.20;;;2.90;;
2119;SDS011;1066;52.540;13.420;2023-04-06T11:59:22;2.63;;;2.43;;
2119;SDS011;1066;52.540;13.420;2023-04-06T12:01:47;3.43;;;2.77;;
2119;SDS011;1066;52.540;13.420;2023-04-06T12:04:13;3.80;;;2.77;;
2119;SDS011;1066;52.540;13.420;2023-04-06T12:06:38;2.90;;;2.40;;
2119;SDS011;1066;52.540;13.420;2023-04-06T12:09:03;4.03;;;2.93;;
2119;SDS011;1066;52.540;13.420;2023-04-06T12:11:29;3.20;;;2.17;;
2119;SDS011;1066;52.540;13.420;2023-04-06T12:13:54;6.97;;;3.60;;
2119;SDS011;1066;52.540;13.420;2023-04-06T12:16:19;3.70;;;2.83;;
2119;SDS011;1066;52.540;13.420;2023-04-06T12:18:45;3.00;;;2.57;;
2119;SDS011;1066;52.540;13.420;2023-04-06T12:21:11;3.40;;;2.87;;
2119;SDS011;1066;52.540;13.420;2023-04-06T12:23:36;4.23;;;3.10;;
2119;SDS011;1066;52.540;13.420;2023-04-06T12:26:02;2.93;;;2.60;;
2119;SDS011;1066;52.540;13.420;2023-04-06T12:28:27;3.40;;;3.10;;
2119;SDS011;1066;52.540;13.420;2023-04-06T12:30:53;3.80;;;2.87;;
2119;SDS011;1066;52.540;13.420;2023-04-06T12:33:19;3.13;;;2.93;;
2119;SDS011;1066;52.540;13.420;2023-04-06T12:35:44;3.10;;;2.80;;
2119;SDS011;1066;52.540;13.420;2023-04-06T12:38:10;3.73;;;3.43;;
2119;SDS011;1066;52.540;13.420;2023-04-06T12:40:38;4.20;;;2.60;;
2119;SDS011;1066;52.540;13.420;2023-04-06T12:43:04;2.73;;;2.50;;
2119;SDS011;1066;52.540;13.420;2023-04-06T12:45:30;4.20;;;2.60;;
2119;SDS011;1066;52.540;13.420;2023-04-06T12:47:55;2.37;;;2.17;;
2119;SDS011;1066;52.540;13.420;2023-04-06T12:50:21;3.73;;;3.23;;
2119;SDS011;1066;52.540;13.420;2023-04-06T12:52:46;5.40;;;4.60;;
2119;SDS011;1066;52.540;13.420;2023-04-06T12:55:12;3.00;;;2.70;;
2119;SDS011;1066;52.540;13.420;2023-04-06T12:57:37;3.10;;;2.90;;
2119;SDS011;1066;52.540;13.420;2023-04-06T13:00:03;5.20;;;2.80;;
2119;SDS011;1066;52.540;13.420;2023-04-06T13:02:29;3.10;;;2.63;;
2119;SDS011;1066;52.540;13.420;2023-04-06T13:04:54;2.53;;;2.30;;
2119;SDS011;1066;52.540;13.420;2023-04-06T13:07:20;3.80;;;2.63;;
2119;SDS011;1066;52.540;13.420;2023-04-06T13:09:45;2.93;;;2.60;;
2119;SDS011;1066;52.540;13.420;2023-04-06T13:12:12;2.80;;;2.60;;
2119;SDS011;1066;52.540;13.420;2023-04-06T13:14:37;3.20;;;2.17;;
2119;SDS011;1066;52.540;13.420;2023-04-06T13:17:04;3.10;;;2.43;;
2119;SDS011;1066;52.540;13.420;2023-04-06T13:19:29;2.57;;;2.10;;
2119;SDS011;1066;52.540;13.420;2023-04-06T13:21:56;3.10;;;2.73;;
2119;SDS011;1066;52.540;13.420;2023-04-06T13:24:21;4.43;;;2.70;;
2119;SDS011;1066;52.540;13.420;2023-04-06T13:26:48;5.30;;;3.00;;
2119;SDS011;1066;52.540;13.420;2023-04-06T13:29:13;3.30;;;2.63;;
2119;SDS011;1066;52.540;13.420;2023-04-06T13:31:38;3.17;;;2.40;;
2119;SDS011;1066;52.540;13.420;2023-04-06T13:34:04;8.03;;;5.87;;
2119;SDS011;1066;52.540;13.420;2023-04-06T13:36:29;10.57;;;9.50;;
2119;SDS011;1066;52.540;13.420;2023-04-06T13:38:56;3.10;;;2.73;;
2119;SDS011;1066;52.540;13.420;2023-04-06T13:41:22;3.63;;;2.83;;
2119;SDS011;1066;52.540;13.420;2023-04-06T13:43:48;2.90;;;2.60;;
2119;SDS011;1066;52.540;13.420;2023-04-06T13:46:13;2.50;;;2.30;;
2119;SDS011;1066;52.540;13.420;2023-04-06T13:48:38;2.80;;;2.10;;
2119;SDS011;1066;52.540;13.420;2023-04-06T13:51:07;3.67;;;2.57;;
2119;SDS011;1066;52.540;13.420;2023-04-06T13:53:33;3.23;;;2.87;;
2119;SDS011;1066;52.540;13.420;2023-04-06T13:55:58;3.87;;;3.20;;
2119;SDS011;1066;52.540;13.420;2023-04-06T13:58:23;3.00;;;2.70;;
2119;SDS011;1066;52.540;13.420;2023-04-06T14:00:48;3.90;;;2.60;;
2119;SDS011;1066;52.540;13.420;2023-04-06T14:03:13;2.60;;;2.40;;
2119;SDS011;1066;52.540;13.420;2023-04-06T14:05:39;2.97;;;2.57;;
2119;SDS011;1066;52.540;13.420;2023-04-06T14:08:04;3.10;;;2.80;;
2119;SDS011;1066;52.540;13.420;2023-04-06T14:10:29;2.87;;;2.67;;
2119;SDS011;1066;52.540;13.420;2023-04-06T14:12:55;3.47;;;3.17;;
2119;SDS011;1066;52.540;13.420;2023-04-06T14:15:20;4.20;;;2.77;;
2119;SDS011;1066;52.540;13.420;2023-04-06T14:17:46;2.63;;;2.33;;
2119;SDS011;1066;52.540;13.420;2023-04-06T14:20:12;3.60;;;3.30;;
2119;SDS011;1066;52.540;13.420;2023-04-06T14:22:39;3.23;;;3.00;;
2119;SDS011;1066;52.540;13.420;2023-04-06T14:25:06;4.50;;;2.67;;
2119;SDS011;1066;52.540;13.420;2023-04-06T14:27:31;10.60;;;9.53;;
2119;SDS011;1066;52.540;13.420;2023-04-06T14:29:57;6.13;;;5.53;;
2119;SDS011;1066;52.540;13.420;2023-04-06T14:32:22;8.63;;;7.73;;
2119;SDS011;1066;52.540;13.420;2023-04-06T14:34:47;4.80;;;3.03;;
2119;SDS011;1066;52.540;13.420;2023-04-06T14:37:13;2.73;;;2.30;;
2119;SDS011;1066;52.540;13.420;2023-04-06T14:39:38;3.63;;;2.50;;
2119;SDS011;1066;52.540;13.420;2023-04-06T14:42:03;3.47;;;2.60;;
2119;SDS011;1066;52.540;13.420;2023-04-06T14:44:28;2.97;;;2.63;;
2119;SDS011;1066;52.540;13.420;2023-04-06T14:46:53;3.77;;;3.10;;
2119;SDS011;1066;52.540;13.420;2023-04-06T14:49:19;3.90;;;3.10;;
2119;SDS011;1066;52.540;13.420;2023-04-06T14:51:44;3.13;;;2.60;;
2119;SDS011;1066;52.540;13.420;2023-04-06T14:54:09;3.63;;;3.30;;
2119;SDS011;1066;52.540;13.420;2023-04-06T14:56:34;3.50;;;3.20;;
2119;SDS011;1066;52.540;13.420;2023-04-06T14:59:00;4.67;;;3.77;;